Time;durP1;ratioP1;P1;durP2;ratioP2;P2;SDS_P1;SDS_P2;PMS_P1;PMS_P2;Temp;Humidity;BMP_temperature;BMP_pressure;BME280_temperature;BME280_humidity;BME280_pressure;Samples;Min_cycle;Max_cycle;Signal;HPM_P1;HPM_P2
2022/06/06 00:01:53;;;;;;;2.80;2.37;;;;;;;14.97;100.00;96902.59;5054870;28;20290;-51
2022/06/06 00:04:23;;;;;;;2.67;2.20;;;;;;;14.93;100.00;96902.06;5054553;28;20207;-51
2022/06/06 00:06:51;;;;;;;3.57;2.30;;;;;;;14.92;100.00;96889.75;5054808;28;20234;-51
2022/06/06 00:09:20;;;;;;;3.20;2.23;;;;;;;14.89;100.00;96898.06;5055081;28;20223;-51
2022/06/06 00:11:47;;;;;;;2.30;2.13;;;;;;;14.87;100.00;96895.59;5074516;28;20218;-51
2022/06/06 00:14:15;;;;;;;3.67;2.17;;;;;;;14.88;100.00;96889.25;5074675;28;20301;-51
2022/06/06 00:16:42;;;;;;;2.40;2.20;;;;;;;14.82;100.00;96889.91;5074130;28;20620;-51
2022/06/06 00:19:09;;;;;;;2.30;2.10;;;;;;;14.84;100.00;96887.09;5045678;28;20711;-50
2022/06/06 00:21:38;;;;;;;2.50;2.30;;;;;;;14.83;100.00;96888.06;5052846;28;20679;-50
2022/06/06 00:24:06;;;;;;;3.13;2.33;;;;;;;14.81;100.00;96885.56;5050121;28;20213;-51
2022/06/06 00:26:34;;;;;;;2.63;2.43;;;;;;;14.83;100.00;96883.59;5054569;28;20743;-51
2022/06/06 00:29:04;;;;;;;9.03;2.40;;;;;;;14.79;100.00;96884.91;5054629;28;20218;-51
2022/06/06 00:37:02;;;;;;;2.70;2.50;;;;;;;14.76;100.00;96879.91;5054336;28;20654;-51
2022/06/06 00:39:29;;;;;;;3.60;2.70;;;;;;;14.76;100.00;96887.06;5054653;28;20290;-51
2022/06/06 00:41:57;;;;;;;2.43;2.33;;;;;;;14.73;100.00;96885.56;5054258;28;20321;-51
2022/06/06 00:44:28;;;;;;;2.50;2.40;;;;;;;14.73;100.00;96874.94;5054181;28;20211;-51
2022/06/06 00:46:56;;;;;;;3.83;2.67;;;;;;;14.78;100.00;96880.56;5054409;28;20376;-51
2022/06/06 00:49:30;;;;;;;3.67;2.60;;;;;;;14.75;100.00;96872.91;5054272;28;20206;-51
2022/06/06 00:51:57;;;;;;;2.50;2.30;;;;;;;14.79;100.00;96890.22;5054271;28;20245;-51
2022/06/06 00:54:25;;;;;;;2.93;2.37;;;;;;;14.84;100.00;96876.44;5064970;28;20654;-51
2022/06/06 00:56:54;;;;;;;4.90;2.63;;;;;;;14.78;100.00;96877.06;5056357;28;20294;-51
2022/06/06 00:59:24;;;;;;;3.00;2.60;;;;;;;14.72;100.00;96878.56;5054510;28;20306;-51
2022/06/06 01:01:51;;;;;;;2.53;2.33;;;;;;;14.73;100.00;96868.75;5054029;28;20290;-50
2022/06/06 01:04:20;;;;;;;4.07;2.50;;;;;;;14.77;100.00;96870.91;5052411;28;20614;-52
2022/06/06 01:06:51;;;;;;;2.50;2.40;;;;;;;14.81;100.00;96874.91;5054286;28;20318;-50
2022/06/06 01:09:22;;;;;;;2.80;2.60;;;;;;;14.82;100.00;96871.25;5066857;28;20234;-51
2022/06/06 01:11:56;;;;;;;2.93;2.37;;;;;;;14.81;100.00;96872.25;5074500;28;20210;-51
2022/06/06 01:14:25;;;;;;;3.40;2.30;;;;;;;14.78;100.00;96871.75;5074244;28;20206;-51
2022/06/06 01:17:01;;;;;;;3.67;2.63;;;;;;;14.72;100.00;96873.25;5074404;28;20203;-51
2022/06/06 01:19:55;;;;;;;4.83;2.80;;;;;;;14.72;100.00;96872.41;5043213;28;20221;-51
2022/06/06 01:22:50;;;;;;;3.20;2.50;;;;;;;14.70;100.00;96864.56;5053354;28;20684;-51
2022/06/06 01:25:29;;;;;;;2.80;2.60;;;;;;;14.73;100.00;96872.25;5054563;28;20313;-51
2022/06/06 01:28:00;;;;;;;5.00;2.27;;;;;;;14.77;100.00;96875.44;5043290;28;20310;-51
2022/06/06 01:30:33;;;;;;;3.57;2.40;;;;;;;14.74;100.00;96867.75;5057576;28;20211;-50
2022/06/06 01:33:03;;;;;;;2.67;2.47;;;;;;;14.72;100.00;96864.41;5057181;28;20302;-51
2022/06/06 01:35:32;;;;;;;2.50;2.30;;;;;;;14.71;100.00;96860.91;5059497;28;20225;-51
2022/06/06 01:37:59;;;;;;;2.40;2.10;;;;;;;14.76;100.00;96861.28;5061062;28;20225;-51
2022/06/06 01:40:29;;;;;;;2.73;2.40;;;;;;;14.69;100.00;96857.59;5057855;28;20203;-51
2022/06/06 01:43:00;;;;;;;2.20;2.10;;;;;;;14.65;100.00;96858.91;5056875;28;20318;-52
2022/06/06 01:45:35;;;;;;;5.00;2.50;;;;;;;14.66;100.00;96857.94;5058088;28;20276;-51
2022/06/06 01:48:04;;;;;;;2.77;2.57;;;;;;;14.65;100.00;96848.28;5058789;28;20218;-51
2022/06/06 01:50:31;;;;;;;2.70;2.30;;;;;;;14.58;100.00;96849.94;5057545;28;20299;-51
2022/06/06 01:53:01;;;;;;;3.63;2.50;;;;;;;14.56;100.00;96851.91;5044416;28;20215;-51
2022/06/06 01:55:31;;;;;;;2.40;2.30;;;;;;;14.56;100.00;96835.94;5044950;28;20215;-51
2022/06/06 01:58:01;;;;;;;3.67;2.40;;;;;;;14.51;100.00;96837.44;5057286;28;20203;-51
2022/06/06 02:00:32;;;;;;;3.37;2.70;;;;;;;14.47;100.00;96842.25;5057271;28;20218;-50
2022/06/06 02:03:00;;;;;;;3.30;2.10;;;;;;;14.43;100.00;96830.25;5064449;28;20213;-51
2022/06/06 02:05:27;;;;;;;3.57;2.50;;;;;;;14.41;100.00;96833.09;5080621;28;20175;-52
2022/06/06 02:08:03;;;;;;;2.93;2.33;;;;;;;14.38;100.00;96832.59;5081003;28;20207;-51
2022/06/06 02:10:30;;;;;;;2.20;2.10;;;;;;;14.35;100.00;96832.88;5068401;28;20207;-51
2022/06/06 02:12:58;;;;;;;2.80;1.83;;;;;;;14.35;100.00;96831.06;5071883;28;20212;-51
2022/06/06 02:15:27;;;;;;;3.43;2.40;;;;;;;14.35;100.00;96828.38;5066209;28;20230;-51
2022/06/06 02:17:57;;;;;;;4.30;2.30;;;;;;;14.32;100.00;96828.69;5059409;28;20253;-51
2022/06/06 02:20:31;;;;;;;2.50;2.30;;;;;;;14.32;100.00;96825.19;5058729;28;20281;-51
2022/06/06 02:22:58;;;;;;;2.30;2.10;;;;;;;14.30;100.00;96827.19;5059207;28;20651;-50
2022/06/06 02:25:26;;;;;;;2.20;2.10;;;;;;;14.28;100.00;96821.19;5063429;28;20282;-51
2022/06/06 02:27:54;;;;;;;2.50;2.30;;;;;;;14.27;100.00;96823.03;5045963;28;20223;-50
2022/06/06 02:30:23;;;;;;;2.53;2.23;;;;;;;14.23;100.00;96819.03;5060029;28;20695;-51
2022/06/06 02:32:50;;;;;;;4.10;2.17;;;;;;;14.26;100.00;96815.19;5061788;28;20242;-51
2022/06/06 02:35:20;;;;;;;4.10;2.50;;;;;;;14.23;100.00;96819.03;5066585;28;20238;-50
2022/06/06 02:37:48;;;;;;;2.50;2.27;;;;;;;14.21;100.00;96809.53;5080309;28;20183;-50
2022/06/06 02:40:17;;;;;;;4.57;2.60;;;;;;;14.21;100.00;96809.53;5079256;28;20202;-51
2022/06/06 02:42:48;;;;;;;2.30;2.17;;;;;;;14.22;100.00;96806.72;5080277;28;20214;-51
2022/06/06 02:45:16;;;;;;;4.50;2.37;;;;;;;14.20;100.00;96802.56;5080612;28;20175;-50
2022/06/06 02:47:45;;;;;;;3.53;2.60;;;;;;;14.18;100.00;96800.06;5074221;28;20229;-51
2022/06/06 02:50:12;;;;;;;2.87;2.37;;;;;;;14.16;100.00;96806.53;5075385;28;20187;-50
2022/06/06 02:52:40;;;;;;;2.83;2.33;;;;;;;14.16;100.00;96802.06;5080382;28;20195;-51
2022/06/06 02:55:11;;;;;;;5.43;2.70;;;;;;;14.08;100.00;96807.34;5080192;28;20211;-50
2022/06/06 02:57:39;;;;;;;2.57;2.07;;;;;;;14.12;100.00;96794.53;5080133;28;20191;-51
2022/06/06 03:00:08;;;;;;;2.67;2.47;;;;;;;14.11;100.00;96793.72;5060953;28;20274;-50
2022/06/06 03:02:36;;;;;;;2.53;2.40;;;;;;;14.07;100.00;96792.38;5053309;28;20290;-50
2022/06/06 03:05:03;;;;;;;2.43;2.23;;;;;;;14.10;100.00;96793.88;5072567;28;20289;-50
2022/06/06 03:07:38;;;;;;;2.97;2.40;;;;;;;14.09;100.00;96794.88;5075660;28;20257;-50
2022/06/06 03:10:17;;;;;;;3.03;2.73;;;;;;;14.03;100.00;96800.84;5041992;28;20195;-51
2022/06/06 03:12:54;;;;;;;2.83;2.47;;;;;;;14.04;100.00;96792.69;5050626;28;20289;-51
2022/06/06 03:20:46;;;;;;;3.53;2.40;;;;;;;13.96;100.00;96795.31;5065009;28;20297;-51
2022/06/06 03:21:31;;;;;;;3.30;2.70;;;;;;;13.95;100.00;96791.84;5043063;28;20206;-52
2022/06/06 03:24:09;;;;;;;4.27;2.90;;;;;;;13.95;100.00;96799.81;5053820;28;20206;-50
2022/06/06 03:26:47;;;;;;;4.57;2.47;;;;;;;14.01;100.00;96794.84;5054931;28;20290;-50
2022/06/06 03:29:28;;;;;;;2.87;2.67;;;;;;;13.97;100.00;96794.31;5059894;28;20306;-51
2022/06/06 03:32:02;;;;;;;4.13;2.60;;;;;;;13.94;100.00;96803.47;5075256;28;20202;-50
2022/06/06 03:34:33;;;;;;;3.40;2.70;;;;;;;14.00;100.00;96803.78;5075499;28;20206;-51
2022/06/06 03:37:08;;;;;;;3.93;2.47;;;;;;;14.02;100.00;96807.97;5075647;28;20212;-52
2022/06/06 03:39:41;;;;;;;2.70;2.50;;;;;;;13.99;100.00;96813.63;5054361;28;20203;-50
2022/06/06 03:42:12;;;;;;;3.73;2.97;;;;;;;14.03;100.00;96816.78;5055009;28;20333;-51
2022/06/06 03:44:49;;;;;;;2.97;2.60;;;;;;;14.03;100.00;96806.16;5054170;28;20234;-51
2022/06/06 03:47:22;;;;;;;2.93;2.73;;;;;;;14.00;100.00;96811.78;5073905;28;20234;-50
2022/06/06 03:49:57;;;;;;;4.43;2.70;;;;;;;14.03;100.00;96820.25;5074612;28;20202;-51
2022/06/06 03:52:28;;;;;;;4.53;2.90;;;;;;;14.04;100.00;96821.09;5074881;28;20710;-51
2022/06/06 03:55:04;;;;;;;2.90;2.60;;;;;;;14.00;100.00;96815.28;5074725;28;20702;-51
2022/06/06 03:57:33;;;;;;;4.77;2.73;;;;;;;14.02;100.00;96828.41;5064549;28;20261;-51
2022/06/06 04:00:04;;;;;;;3.93;2.87;;;;;;;14.04;100.00;96826.41;5053970;28;20627;-51
2022/06/06 04:02:33;;;;;;;2.90;2.70;;;;;;;14.08;100.00;96822.44;5054480;28;20211;-51
2022/06/06 04:05:01;;;;;;;3.40;3.20;;;;;;;14.16;100.00;96825.16;5054924;28;20286;-50
2022/06/06 04:07:28;;;;;;;5.63;3.07;;;;;;;14.19;100.00;96824.81;5055101;28;20322;-50
2022/06/06 04:09:55;;;;;;;3.43;3.13;;;;;;;14.29;100.00;96825.50;5054976;28;20672;-50
2022/06/06 04:12:38;;;;;;;3.20;3.00;;;;;;;14.33;100.00;96829.53;5053857;28;20616;-51
2022/06/06 04:15:15;;;;;;;3.13;2.93;;;;;;;14.44;100.00;96832.75;5054854;28;20282;-50
2022/06/06 04:17:52;;;;;;;3.77;2.93;;;;;;;14.58;100.00;96833.97;5064478;28;20192;-51
2022/06/06 04:20:24;;;;;;;5.17;3.10;;;;;;;14.73;100.00;96832.31;5052787;28;20254;-50
2022/06/06 04:23:07;;;;;;;2.70;2.57;;;;;;;14.73;100.00;96832.31;5076896;28;20198;-50
2022/06/06 04:25:41;;;;;;;3.20;2.90;;;;;;;14.86;100.00;96832.66;5078127;28;20167;-51
2022/06/06 04:28:15;;;;;;;2.83;2.73;;;;;;;14.91;100.00;96835.66;5060516;28;20218;-51
2022/06/06 04:30:51;;;;;;;3.43;3.20;;;;;;;15.03;100.00;96832.66;5053924;28;20190;-51
2022/06/06 04:33:20;;;;;;;4.87;3.37;;;;;;;15.21;100.00;96838.66;5054868;28;20293;-51
2022/06/06 04:36:02;;;;;;;6.03;3.70;;;;;;;15.34;100.00;96836.31;5045648;28;20203;-51
2022/06/06 04:38:32;;;;;;;3.93;3.73;;;;;;;15.49;100.00;96845.34;5054344;28;20673;-51
2022/06/06 04:41:07;;;;;;;4.20;3.83;;;;;;;15.65;100.00;96845.34;5054679;28;20222;-51
2022/06/06 04:43:43;;;;;;;5.47;3.67;;;;;;;15.74;100.00;96846.97;5054219;28;20429;-51
2022/06/06 04:46:15;;;;;;;3.95;3.65;;;;;;;15.72;100.00;96841.00;5048513;28;20203;-50
2022/06/06 04:48:43;;;;;;;4.50;3.93;;;;;;;15.75;100.00;96845.13;5051843;28;20326;-51
2022/06/06 04:51:10;;;;;;;4.40;3.90;;;;;;;15.77;100.00;96843.97;5054253;28;20286;-50
2022/06/06 04:53:40;;;;;;;4.13;3.83;;;;;;;15.83;100.00;96843.31;5054482;28;20613;-50
2022/06/06 04:56:07;;;;;;;3.90;3.50;;;;;;;15.94;100.00;96840.25;5054643;28;20298;-51
2022/06/06 04:58:37;;;;;;;4.43;3.42;;;;;;;15.93;100.00;96843.09;5054463;28;20602;-51
2022/06/06 05:01:04;;;;;;;3.53;3.23;;;;;;;15.96;100.00;96840.09;5054168;28;20237;-50
2022/06/06 05:03:31;;;;;;;3.93;3.60;;;;;;;15.98;100.00;96846.06;5056852;28;20207;-51
2022/06/06 05:06:08;;;;;;;4.90;3.83;;;;;;;16.05;100.00;96840.91;5058296;28;20217;-51
2022/06/06 05:08:57;;;;;;;4.28;3.90;;;;;;;16.11;100.00;96832.19;5057959;28;20305;-51
2022/06/06 05:11:36;;;;;;;3.70;3.40;;;;;;;16.26;100.00;96835.81;5046265;28;20298;-51
2022/06/06 05:14:23;;;;;;;5.60;4.10;;;;;;;16.39;100.00;96844.94;5058102;28;20575;-51
2022/06/06 05:17:03;;;;;;;5.87;4.03;;;;;;;16.51;100.00;96842.66;5055800;28;20302;-51
2022/06/06 05:19:53;;;;;;;5.32;3.72;;;;;;;16.65;100.00;96846.50;5044684;28;20205;-51
2022/06/06 05:22:50;;;;;;;4.63;4.03;;;;;;;16.90;100.00;96853.31;5058083;28;20210;-51
2022/06/06 05:25:30;;;;;;;6.00;3.85;;;;;;;17.23;100.00;96853.94;5057799;28;20290;-51
2022/06/06 05:28:43;;;;;;;4.22;3.92;;;;;;;17.41;100.00;96843.75;5044892;28;20306;-50
2022/06/06 05:31:20;;;;;;;10.25;4.25;;;;;;;17.65;100.00;96851.59;4977003;28;20214;-51
2022/06/06 05:33:50;;;;;;;4.45;3.95;;;;;;;17.92;100.00;96840.25;5041451;28;20286;-51
2022/06/06 05:36:32;;;;;;;4.63;4.03;;;;;;;18.08;100.00;96838.41;5057736;28;20289;-51
2022/06/06 05:39:12;;;;;;;4.80;3.63;;;;;;;18.28;100.00;96848.38;5056327;28;20203;-51
2022/06/06 05:41:57;;;;;;;3.88;3.58;;;;;;;18.66;100.00;96838.41;5050467;28;20563;-51
2022/06/06 05:44:33;;;;;;;4.32;3.90;;;;;;;18.80;100.00;96840.22;5057253;28;20286;-51
2022/06/06 05:47:07;;;;;;;4.47;4.07;;;;;;;19.07;100.00;96840.47;5057511;28;20202;-51
2022/06/06 05:49:44;;;;;;;5.53;3.50;;;;;;;19.16;97.52;96850.06;5057293;28;20314;-52
2022/06/06 05:52:24;;;;;;;3.63;3.33;;;;;;;19.32;99.18;96857.84;5057456;28;20567;-52
2022/06/06 05:55:03;;;;;;;5.05;3.15;;;;;;;19.64;100.00;96857.31;5056383;28;20471;-52
2022/06/06 05:57:42;;;;;;;4.82;3.22;;;;;;;19.96;95.09;96863.13;5057091;28;20289;-52
2022/06/06 06:00:18;;;;;;;5.20;3.70;;;;;;;20.24;93.23;96862.06;5057192;28;20290;-51
2022/06/06 06:03:15;;;;;;;3.53;3.22;;;;;;;20.22;92.00;96866.00;5057387;28;20306;-51
2022/06/06 06:05:50;;;;;;;4.00;3.70;;;;;;;20.07;90.14;96865.28;5047587;28;20285;-52
2022/06/06 06:08:25;;;;;;;4.88;3.22;;;;;;;19.75;91.28;96867.53;5051099;28;20238;-52
2022/06/06 06:10:57;;;;;;;3.40;3.10;;;;;;;19.54;94.21;96867.56;5055288;28;20699;-51
2022/06/06 06:13:37;;;;;;;4.28;3.47;;;;;;;19.48;95.14;96871.03;5043231;28;20290;-51
2022/06/06 06:16:05;;;;;;;5.00;4.60;;;;;;;19.41;94.75;96875.50;5056868;28;20210;-51
2022/06/06 06:18:37;;;;;;;4.30;3.90;;;;;;;19.28;93.47;96881.53;5056816;28;20217;-52
2022/06/06 06:21:11;;;;;;;5.43;3.67;;;;;;;19.14;93.17;96884.25;5056953;28;20199;-51
2022/06/06 06:23:49;;;;;;;3.70;3.40;;;;;;;19.02;98.45;96885.78;5056816;28;20302;-51
2022/06/06 06:26:16;;;;;;;5.25;3.45;;;;;;;18.96;99.35;96883.84;5056934;28;20278;-51
2022/06/06 06:28:47;;;;;;;3.65;3.30;;;;;;;19.05;96.54;96901.50;5056169;28;20761;-51
2022/06/06 06:31:26;;;;;;;4.00;3.33;;;;;;;19.03;94.15;96893.63;5057038;28;20206;-51
2022/06/06 06:34:04;;;;;;;4.10;3.70;;;;;;;19.02;96.49;96904.56;5056785;28;20298;-51
2022/06/06 06:36:44;;;;;;;5.28;3.70;;;;;;;18.97;94.67;96899.75;5057009;28;20234;-51
2022/06/06 06:39:21;;;;;;;4.03;3.53;;;;;;;18.95;92.82;96898.28;5097498;28;20206;-51
2022/06/06 06:41:57;;;;;;;3.97;3.67;;;;;;;18.87;93.64;96900.06;5099403;28;20222;-51
2022/06/06 06:44:29;;;;;;;4.65;4.03;;;;;;;18.86;93.62;96903.75;5098975;28;20190;-51
2022/06/06 06:47:00;;;;;;;4.13;3.72;;;;;;;18.84;93.51;96908.50;5065184;28;20199;-52
2022/06/06 06:49:36;;;;;;;4.72;3.70;;;;;;;18.85;96.32;96911.97;5055414;28;20215;-51
2022/06/06 06:52:09;;;;;;;4.13;3.83;;;;;;;18.84;95.26;96926.41;5061370;28;20202;-51
2022/06/06 06:54:47;;;;;;;7.18;3.90;;;;;;;18.73;95.03;96922.34;5076382;28;20202;-51
2022/06/06 06:57:25;;;;;;;4.28;3.88;;;;;;;18.60;96.52;96924.84;5075920;28;20298;-52
2022/06/06 07:00:03;;;;;;;4.80;4.40;;;;;;;18.55;100.00;96927.28;5075932;28;20301;-51
2022/06/06 07:08:36;;;;;;;4.43;4.00;;;;;;;18.49;97.61;96932.50;5044556;28;20381;-51
2022/06/06 07:11:33;;;;;;;4.43;4.03;;;;;;;18.51;95.97;96920.63;5056021;28;20203;-51
2022/06/06 07:14:10;;;;;;;4.50;4.10;;;;;;;18.60;95.52;96934.75;5065673;28;20328;-51
2022/06/06 07:16:39;;;;;;;4.32;3.92;;;;;;;18.76;98.04;96930.03;5042981;28;20241;-52
2022/06/06 07:19:12;;;;;;;4.40;4.10;;;;;;;18.97;96.70;96928.41;5055953;28;20624;-52
2022/06/06 07:21:41;;;;;;;4.55;4.15;;;;;;;19.10;93.85;96932.06;5053784;28;20187;-52
2022/06/06 07:24:10;;;;;;;4.82;4.30;;;;;;;19.06;92.17;96925.41;5069069;28;20198;-50
2022/06/06 07:26:38;;;;;;;5.80;4.10;;;;;;;19.19;92.67;96930.09;5056087;28;20286;-52
2022/06/06 07:29:07;;;;;;;4.20;3.80;;;;;;;19.29;92.18;96922.59;5054037;28;20326;-51
2022/06/06 07:31:49;;;;;;;6.05;3.78;;;;;;;19.58;90.44;96927.03;5055702;28;20297;-51
2022/06/06 07:34:29;;;;;;;4.25;3.88;;;;;;;19.65;87.71;96933.28;5061014;28;20221;-52
2022/06/06 07:37:07;;;;;;;4.28;3.95;;;;;;;19.63;88.58;96933.47;5039736;28;20283;-52
2022/06/06 07:39:47;;;;;;;5.70;4.00;;;;;;;19.52;87.71;96925.13;5054273;28;20238;-51
2022/06/06 07:42:43;;;;;;;5.57;4.07;;;;;;;19.39;84.62;96926.59;5054837;28;20230;-53
2022/06/06 07:45:21;;;;;;;5.10;4.18;;;;;;;19.30;86.73;96927.78;5043681;28;20287;-51
2022/06/06 07:47:58;;;;;;;3.80;3.33;;;;;;;19.82;86.89;96919.41;5044983;28;20286;-53
2022/06/06 07:50:26;;;;;;;5.72;3.72;;;;;;;20.02;87.02;96926.78;5052511;28;20223;-52
2022/06/06 07:53:02;;;;;;;4.05;3.60;;;;;;;20.15;80.29;96924.22;5055372;28;20238;-51
2022/06/06 07:55:32;;;;;;;4.30;3.47;;;;;;;20.22;83.12;96928.59;5055110;28;20207;-52
2022/06/06 07:58:09;;;;;;;3.65;3.35;;;;;;;20.20;80.36;96924.44;5055267;28;20215;-52
2022/06/06 08:00:38;;;;;;;3.40;3.10;;;;;;;20.37;80.64;96927.69;5043901;28;20690;-51
2022/06/06 08:03:14;;;;;;;3.95;3.20;;;;;;;20.30;82.33;96927.63;5055188;28;20290;-52
2022/06/06 08:06:08;;;;;;;3.50;3.13;;;;;;;20.52;81.27;96926.53;5055302;28;20294;-52
2022/06/06 08:08:47;;;;;;;3.78;3.50;;;;;;;20.78;82.16;96918.63;5041115;28;20214;-51
2022/06/06 08:11:19;;;;;;;3.55;3.30;;;;;;;20.67;85.69;96916.50;5055066;28;20206;-57
2022/06/06 08:13:54;;;;;;;4.32;3.78;;;;;;;20.92;80.85;96919.50;5055342;28;20290;-53
2022/06/06 08:16:28;;;;;;;3.30;3.00;;;;;;;21.26;79.85;96919.44;5055278;28;20229;-52
2022/06/06 08:19:16;;;;;;;3.25;3.05;;;;;;;21.58;75.94;96914.31;5054935;28;20194;-51
2022/06/06 08:21:44;;;;;;;3.53;3.28;;;;;;;21.86;71.20;96909.56;5055334;28;20599;-52
2022/06/06 08:24:17;;;;;;;5.72;3.25;;;;;;;22.23;69.50;96913.53;5054756;28;20215;-51
2022/06/06 08:26:46;;;;;;;3.55;3.28;;;;;;;22.24;68.19;96912.50;5044626;28;20286;-51
2022/06/06 08:29:14;;;;;;;3.40;3.10;;;;;;;21.84;68.90;96911.66;5054424;28;20231;-52
2022/06/06 08:31:41;;;;;;;3.58;3.00;;;;;;;21.80;73.96;96910.41;5053865;28;20286;-51
2022/06/06 08:34:11;;;;;;;3.25;3.00;;;;;;;22.26;74.33;96902.31;5055102;28;20238;-52
2022/06/06 08:36:50;;;;;;;4.00;3.60;;;;;;;22.38;69.19;96903.34;5054952;28;20211;-52
2022/06/06 08:39:23;;;;;;;5.35;3.17;;;;;;;22.02;73.28;96905.66;5055560;28;20601;-53
2022/06/06 08:42:09;;;;;;;3.22;3.00;;;;;;;22.07;73.77;96904.00;5058324;28;20612;-51
2022/06/06 08:44:51;;;;;;;4.32;3.15;;;;;;;22.31;69.62;96902.53;5058530;28;20726;-51
2022/06/06 08:47:30;;;;;;;4.20;3.60;;;;;;;22.08;69.53;96892.19;5058743;28;20203;-51
2022/06/06 08:53:25;;;;;;;4.03;2.95;;;;;;;22.86;71.50;96890.34;5055508;28;20222;-50
2022/06/06 08:56:08;;;;;;;3.60;3.30;;;;;;;22.68;67.50;96885.66;5071073;28;20186;-51
2022/06/06 08:59:08;;;;;;;4.38;3.40;;;;;;;22.24;69.17;96883.69;5080215;28;20230;-51
2022/06/06 09:01:56;;;;;;;3.45;3.20;;;;;;;22.25;70.43;96873.72;5063823;28;20290;-51
2022/06/06 09:05:07;;;;;;;4.40;3.33;;;;;;;22.87;72.82;96866.91;5058348;28;20303;-51
2022/06/06 09:08:07;;;;;;;5.35;3.22;;;;;;;23.03;70.69;96867.25;5030984;28;20214;-51
2022/06/06 09:11:14;;;;;;;3.65;3.10;;;;;;;23.87;69.20;96864.22;5048322;28;20211;-51
2022/06/06 09:14:11;;;;;;;3.55;3.30;;;;;;;24.15;63.50;96852.97;5050939;28;20282;-50
2022/06/06 09:17:31;;;;;;;4.70;3.30;;;;;;;23.76;65.02;96852.25;5056461;28;20290;-51
2022/06/06 09:20:24;;;;;;;3.10;2.90;;;;;;;23.71;65.05;96854.78;4996324;28;20301;-52
2022/06/06 09:23:28;;;;;;;3.45;3.15;;;;;;;23.52;67.41;96854.94;5053154;28;20200;-52
2022/06/06 09:26:00;;;;;;;4.20;3.30;;;;;;;23.18;64.71;96848.91;5057496;28;20233;-51
2022/06/06 09:29:11;;;;;;;3.53;3.20;;;;;;;23.20;67.32;96851.41;5057760;28;20203;-51
2022/06/06 09:32:10;;;;;;;3.80;3.28;;;;;;;22.90;65.33;96850.31;5058009;28;20273;-49
2022/06/06 09:35:34;;;;;;;3.03;2.90;;;;;;;23.50;66.10;96844.34;5057832;28;20576;-51
2022/06/06 09:38:17;;;;;;;4.05;3.13;;;;;;;24.20;65.60;96836.91;5031766;28;20286;-51
2022/06/06 09:40:59;;;;;;;4.78;3.55;;;;;;;23.96;62.26;96848.53;5067662;28;20206;-53
2022/06/06 09:43:50;;;;;;;3.38;3.10;;;;;;;23.60;67.10;96847.38;5051154;28;20240;-50
2022/06/06 09:46:46;;;;;;;5.18;3.38;;;;;;;23.51;64.14;96842.50;5056021;28;20203;-57
2022/06/06 09:49:47;;;;;;;3.17;2.97;;;;;;;23.14;64.99;96841.44;5044995;28;20313;-52
2022/06/06 09:52:55;;;;;;;4.82;3.40;;;;;;;22.83;67.09;96833.34;5057137;28;20298;-50
2022/06/06 09:59:11;;;;;;;3.63;3.33;;;;;;;;;;5042468;28;20404;-49
2022/06/06 10:02:14;;;;;;;3.63;3.30;;;;;;;22.84;71.63;96835.00;5044175;28;20237;-50
2022/06/06 10:05:05;;;;;;;5.13;3.22;;;;;;;22.57;66.85;96835.06;5048115;28;20282;-50
2022/06/06 10:08:20;;;;;;;3.17;2.97;;;;;;;22.32;65.58;96834.94;5062661;28;20277;-50
2022/06/06 10:11:14;;;;;;;6.40;3.33;;;;;;;22.22;71.09;96834.56;5015419;28;20323;-51
2022/06/06 10:13:52;;;;;;;3.90;3.40;;;;;;;22.34;70.39;96823.97;5077578;28;20202;-49
2022/06/06 10:16:35;;;;;;;3.85;3.53;;;;;;;22.32;67.77;96831.41;5077676;28;20241;-49
2022/06/06 10:19:20;;;;;;;3.75;3.15;;;;;;;22.34;71.28;96818.56;5049403;28;20600;-51
2022/06/06 10:22:26;;;;;;;4.03;3.33;;;;;;;22.22;70.45;96820.25;5057167;28;20286;-53
2022/06/06 10:25:38;;;;;;;4.22;3.40;;;;;;;22.11;68.19;96812.81;5057216;28;20290;-52
2022/06/06 10:28:22;;;;;;;3.40;3.20;;;;;;;22.16;67.86;96811.16;5040640;28;20211;-55
2022/06/06 10:30:58;;;;;;;3.15;2.95;;;;;;;22.77;66.24;96808.91;5057862;28;20302;-53
2022/06/06 10:34:01;;;;;;;3.85;3.45;;;;;;;23.39;62.24;96809.94;5052246;28;20230;-52
2022/06/06 10:36:43;;;;;;;3.22;3.03;;;;;;;23.63;61.89;96801.03;5020890;28;20243;-48
2022/06/06 10:39:37;;;;;;;3.00;2.80;;;;;;;24.26;61.46;96806.28;5087728;28;20212;-51
2022/06/06 10:42:27;;;;;;;3.47;3.03;;;;;;;24.55;60.68;96800.09;5085447;28;20237;-49
2022/06/06 10:45:18;;;;;;;3.30;3.00;;;;;;;24.30;59.55;96799.41;5079661;28;20187;-50
2022/06/06 10:48:14;;;;;;;3.53;3.00;;;;;;;24.43;60.18;96798.41;5057470;28;20200;-49
2022/06/06 10:53:54;;;;;;;2.80;2.60;;;;;;;24.74;56.92;96790.09;5044009;28;20187;-52
2022/06/06 10:56:40;;;;;;;3.85;2.83;;;;;;;24.45;59.26;96786.31;5075215;28;20203;-53
2022/06/06 10:59:34;;;;;;;6.47;3.10;;;;;;;24.03;60.16;96789.88;5066380;28;20206;-54
2022/06/06 11:02:26;;;;;;;6.05;3.30;;;;;;;23.64;62.71;96782.97;5075886;28;20207;-53
2022/06/06 11:05:20;;;;;;;3.30;3.03;;;;;;;23.64;62.47;96780.28;5070317;28;20199;-48
2022/06/06 11:08:16;;;;;;;3.17;2.97;;;;;;;23.90;61.01;96776.50;5055168;28;20294;-50
2022/06/06 11:11:24;;;;;;;3.20;2.90;;;;;;;24.12;59.92;96764.22;5060409;28;20254;-49
2022/06/06 11:14:00;;;;;;;3.00;2.80;;;;;;;24.70;57.24;96770.78;5077952;28;20266;-50
2022/06/06 11:16:47;;;;;;;3.22;2.50;;;;;;;25.19;57.78;96769.69;5092211;28;20194;-52
2022/06/06 11:19:48;;;;;;;3.15;2.95;;;;;;;25.51;56.39;96758.59;5062669;28;20217;-52
2022/06/06 11:22:29;;;;;;;3.65;2.67;;;;;;;25.18;55.61;96764.53;5069667;28;20206;-53
2022/06/06 11:25:07;;;;;;;2.63;2.50;;;;;;;25.12;55.80;96768.16;5066136;28;20631;-54
2022/06/06 11:28:08;;;;;;;8.27;6.82;;;;;;;24.95;56.29;96761.75;5072703;28;20215;-50
2022/06/06 11:30:51;;;;;;;3.58;2.90;;;;;;;24.75;56.09;96754.72;5075037;28;20211;-48
2022/06/06 11:33:50;;;;;;;4.00;2.80;;;;;;;24.41;57.47;96755.38;5075084;28;20218;-49
2022/06/06 11:36:41;;;;;;;3.10;2.88;;;;;;;24.34;59.40;96741.09;5009156;28;20227;-49
2022/06/06 11:39:28;;;;;;;2.75;2.60;;;;;;;24.78;59.43;96738.03;5052849;28;20285;-49
2022/06/06 11:42:26;;;;;;;3.42;2.67;;;;;;;25.11;54.97;96732.16;5055808;28;20306;-50
2022/06/06 11:45:18;;;;;;;5.07;2.67;;;;;;;25.88;55.61;96735.66;5063241;28;20203;-50
2022/06/06 11:47:53;;;;;;;2.35;2.15;;;;;;;26.05;51.72;96727.63;5045736;28;20283;-50
2022/06/06 11:50:59;;;;;;;2.50;2.30;;;;;;;26.24;49.42;96721.03;5069881;28;20242;-49
2022/06/06 11:53:57;;;;;;;3.63;2.70;;;;;;;26.57;51.97;96725.75;5041057;28;20242;-49
2022/06/06 11:56:42;;;;;;;4.20;2.38;;;;;;;26.71;48.41;96717.06;5068248;28;20252;-48
2022/06/06 11:59:50;;;;;;;2.47;2.28;;;;;;;26.42;49.40;96714.59;5082304;28;20230;-48
2022/06/06 12:02:54;;;;;;;2.58;2.40;;;;;;;26.05;54.57;96716.78;5086361;28;20241;-49
2022/06/06 12:05:37;;;;;;;6.15;2.33;;;;;;;25.92;54.42;96708.91;5064231;28;20191;-50
2022/06/06 12:08:47;;;;;;;2.53;2.38;;;;;;;25.98;55.50;96710.66;5058215;28;20227;-50
2022/06/06 12:12:19;;;;;;;3.97;2.47;;;;;;;26.01;53.60;96702.88;5083896;28;20266;-55
2022/06/06 12:15:00;;;;;;;2.60;2.40;;;;;;;25.94;52.77;96695.94;5061080;28;20237;-53
2022/06/06 12:17:39;;;;;;;4.25;2.90;;;;;;;25.74;50.42;96689.03;5054913;28;20207;-52
2022/06/06 12:20:31;;;;;;;2.40;2.20;;;;;;;25.57;52.43;96692.69;5053669;28;20203;-52
2022/06/06 12:23:07;;;;;;;2.33;2.22;;;;;;;25.28;53.49;96694.41;5054693;28;20647;-52
2022/06/06 12:26:11;;;;;;;2.85;2.50;;;;;;;24.97;56.69;96695.53;5053131;28;20302;-52
2022/06/06 12:29:04;;;;;;;2.70;2.42;;;;;;;24.97;53.03;96687.44;5039534;28;20681;-49
2022/06/06 12:31:50;;;;;;;3.28;2.42;;;;;;;24.94;57.17;96687.06;5054484;28;20310;-49
2022/06/06 12:34:25;;;;;;;3.08;2.47;;;;;;;24.94;58.18;96674.34;5054427;28;20212;-49
2022/06/06 12:36:58;;;;;;;2.78;2.58;;;;;;;24.85;56.03;96674.91;5054757;28;20272;-50
2022/06/06 12:39:34;;;;;;;4.18;2.20;;;;;;;24.87;57.30;96675.53;5053723;28;20278;-49
2022/06/06 12:42:07;;;;;;;4.82;2.67;;;;;;;24.72;55.99;96667.81;5054942;28;20210;-50
2022/06/06 12:45:02;;;;;;;2.63;2.40;;;;;;;24.71;57.15;96675.09;5055878;28;20302;-49
2022/06/06 12:47:54;;;;;;;3.38;3.08;;;;;;;24.59;56.88;96668.81;5055685;28;20199;-48
2022/06/06 12:50:30;;;;;;;2.65;2.45;;;;;;;24.64;59.54;96660.84;5055177;28;20257;-49